»·PEaware :: WAT169 KLAS-KSAN

WAT169 :: KLAS-KSAN

FLIGHT INFORMATION

Flight Status: Arrived
Operator:
Walker Air Transport
More flights by this operator :: More flights under this callsign
Pilot: Marty P. (27464)
Aircraft: BOEING 737-800
(B738)
More flights by this aircraft type
Origin: KLAS McCarran Intl
United States
Destination: KSAN San Diego Intl-Lindbergh
United States
More flights between these airports :: More routes between these airports
Route: BOACH8 LVELL LUCKI1
File this flight plan on PilotEdge
Remarks:
Altitude:
(Current/Filed)
28,000ft
Speed:
(Current/Filed)
470kts
Departed: 31-May-20 08:22 AM
Arrived: 31-May-20 09:08 AM
Distance/Time
Traveled:
225nm/0:46
Distance/Time
To Go:
Arrived

Flight Plot

Page will automatically refresh every two minutes.

Flight plan parsing failed; only flown route is shown


Map Options




Map Legend


Flown Route
Filed Route
Departure Airport
Arrival Airport
Navaid (VOR, NDB)
Fix

Horizontal Profiles

Position Reports

Time Latitude Longitude Heading Altitude Ground
Speed
31-May-20 08:00 36.081009 -115.147654 61 2191ft 0kts
31-May-20 08:01 36.081009 -115.147654 61 2191ft 0kts
31-May-20 08:02 36.081009 -115.147654 61 2191ft 0kts
31-May-20 08:03 36.081009 -115.147654 61 2191ft 0kts
31-May-20 08:04 36.081009 -115.147654 61 2191ft 0kts
31-May-20 08:05 36.081009 -115.147654 61 2191ft 0kts
31-May-20 08:06 36.081009 -115.147654 61 2191ft 0kts
31-May-20 08:07 36.081009 -115.147654 61 2191ft 0kts
31-May-20 08:08 36.081009 -115.147654 61 2191ft 0kts
31-May-20 08:09 36.081009 -115.147654 61 2191ft 0kts
31-May-20 08:10 36.081009 -115.147654 61 2191ft 0kts
31-May-20 08:11 36.081009 -115.147655 61 2191ft 0kts
31-May-20 08:12 36.080985 -115.148326 119 2191ft 2kts
31-May-20 08:13 36.081269 -115.148635 155 2191ft 0kts
31-May-20 08:14 36.081268 -115.148635 155 2191ft 0kts
31-May-20 08:15 36.080647 -115.148281 154 2191ft 7kts
31-May-20 08:16 36.078460 -115.146268 97 2191ft 9kts
31-May-20 08:17 36.078266 -115.140187 90 2191ft 25kts
31-May-20 08:18 36.078270 -115.133092 89 2191ft 17kts
31-May-20 08:19 36.078273 -115.126445 90 2191ft 19kts
31-May-20 08:20 36.077456 -115.121491 137 2191ft 8kts
31-May-20 08:21 36.076416 -115.131320 269 2191ft 125kts
31-May-20 08:22 36.076727 -115.195731 267 3958ft 226kts
31-May-20 08:23 36.045442 -115.267524 205 6966ft 261kts
31-May-20 08:24 35.977102 -115.298086 194 7173ft 273kts
31-May-20 08:25 35.904934 -115.309527 185 11238ft 256kts
31-May-20 08:26 35.824543 -115.309704 174 12410ft 337kts
31-May-20 08:27 35.728605 -115.294971 175 15129ft 353kts
31-May-20 08:28 35.629149 -115.293456 184 17653ft 365kts
31-May-20 08:29 35.527608 -115.300221 185 20097ft 373kts
31-May-20 08:30 35.422736 -115.307952 185 22198ft 384kts
31-May-20 08:31 35.314586 -115.311388 183 24013ft 397kts
31-May-20 08:32 35.202902 -115.314145 184 25606ft 409kts
31-May-20 08:33 35.087875 -115.318200 184 26945ft 423kts
31-May-20 08:34 34.969851 -115.322701 184 27955ft 431kts
31-May-20 08:35 34.851614 -115.328820 189 27957ft 442kts
31-May-20 08:36 34.730719 -115.359751 198 27976ft 449kts
31-May-20 08:37 34.611577 -115.406969 200 27981ft 455kts
31-May-20 08:38 34.491841 -115.458023 201 27980ft 457kts
31-May-20 08:39 34.372166 -115.510279 204 27980ft 456kts
31-May-20 08:40 34.260264 -115.581519 210 27981ft 457kts
31-May-20 08:41 34.144064 -115.643735 203 27955ft 457kts
31-May-20 08:42 34.028739 -115.699933 202 27926ft 458kts
31-May-20 08:43 33.911120 -115.755886 202 27926ft 458kts
31-May-20 08:44 33.794583 -115.813144 203 27918ft 443kts
31-May-20 08:45 33.684756 -115.865357 202 27928ft 426kts
31-May-20 08:46 33.575287 -115.916499 203 27654ft 414kts
31-May-20 08:47 33.488710 -116.001356 229 25840ft 406kts
31-May-20 08:48 33.421858 -116.107632 232 23196ft 394kts
31-May-20 08:49 33.359874 -116.212052 230 20651ft 377kts
31-May-20 08:50 33.279033 -116.284686 206 18300ft 356kts
31-May-20 08:51 33.190169 -116.336468 206 16900ft 370kts
31-May-20 08:52 33.102245 -116.387875 206 14474ft 338kts
31-May-20 08:53 33.022368 -116.434483 205 13201ft 297kts
31-May-20 08:54 32.955910 -116.494002 219 11726ft 295kts
31-May-20 08:55 32.900276 -116.550511 219 11143ft 247kts
31-May-20 08:56 32.847353 -116.603799 220 10059ft 256kts
31-May-20 08:57 32.792448 -116.659026 220 8788ft 260kts
31-May-20 08:58 32.749985 -116.727754 241 7492ft 257kts
31-May-20 08:59 32.717153 -116.797713 241 6316ft 231kts
31-May-20 09:00 32.692485 -116.865841 251 5230ft 205kts
31-May-20 09:01 32.675830 -116.924489 260 4350ft 182kts
31-May-20 09:02 32.681727 -116.977028 288 3552ft 151kts
31-May-20 09:03 32.693579 -117.025381 287 2866ft 153kts
31-May-20 09:04 32.705280 -117.073384 288 2031ft 151kts
31-May-20 09:05 32.716828 -117.120782 289 1115ft 149kts
31-May-20 09:06 32.728406 -117.168881 288 431ft 167kts
31-May-20 09:07 32.735093 -117.198292 251 27ft 14kts
31-May-20 09:08 32.734923 -117.198902 250 27ft 1kts
31-May-20 09:09 32.733656 -117.198931 148 27ft 0kts
31-May-20 09:10 32.733656 -117.198931 148 27ft 0kts

Navigation Log

Ident Type
Flight plan parsing failed, navigation log unavailable